sensor_id;sensor_type;location;lat;lon;timestamp;temperature;humidity
37300;DHT22;23184;51.902;12.836;2024-02-04T00:00:14;7.60;99.90
37300;DHT22;23184;51.902;12.836;2024-02-04T00:02:40;7.60;99.90
37300;DHT22;23184;51.902;12.836;2024-02-04T00:05:06;7.50;99.90
37300;DHT22;23184;51.902;12.836;2024-02-04T00:07:31;7.50;99.90
37300;DHT22;23184;51.902;12.836;2024-02-04T00:09:57;7.50;99.90
37300;DHT22;23184;51.902;12.836;2024-02-04T00:12:22;7.40;99.90
37300;DHT22;23184;51.902;12.836;2024-02-04T00:14:48;7.40;99.90
37300;DHT22;23184;51.902;12.836;2024-02-04T00:17:17;7.40;99.90
37300;DHT22;23184;51.902;12.836;2024-02-04T00:19:43;7.30;99.90
37300;DHT22;23184;51.902;12.836;2024-02-04T00:22:08;7.30;99.90
37300;DHT22;23184;51.902;12.836;2024-02-04T00:24:34;7.20;99.90
37300;DHT22;23184;51.902;12.836;2024-02-04T00:26:59;7.20;99.90
37300;DHT22;23184;51.902;12.836;2024-02-04T00:29:25;7.10;99.90
37300;DHT22;23184;51.902;12.836;2024-02-04T00:31:50;7.10;99.90
37300;DHT22;23184;51.902;12.836;2024-02-04T00:34:16;7.10;99.90
37300;DHT22;23184;51.902;12.836;2024-02-04T00:36:42;7.20;99.90
37300;DHT22;23184;51.902;12.836;2024-02-04T00:39:07;7.10;99.90
37300;DHT22;23184;51.902;12.836;2024-02-04T00:41:34;7.10;99.90
37300;DHT22;23184;51.902;12.836;2024-02-04T00:44:00;7.20;99.90
37300;DHT22;23184;51.902;12.836;2024-02-04T00:46:26;7.20;99.90
37300;DHT22;23184;51.902;12.836;2024-02-04T00:48:51;7.20;99.90
37300;DHT22;23184;51.902;12.836;2024-02-04T00:51:17;7.20;99.90
37300;DHT22;23184;51.902;12.836;2024-02-04T00:53:43;7.30;99.90
37300;DHT22;23184;51.902;12.836;2024-02-04T00:56:09;7.30;99.90
37300;DHT22;23184;51.902;12.836;2024-02-04T00:58:36;7.30;99.90
37300;DHT22;23184;51.902;12.836;2024-02-04T01:01:02;7.20;99.90
37300;DHT22;23184;51.902;12.836;2024-02-04T01:03:28;7.20;99.90
37300;DHT22;23184;51.902;12.836;2024-02-04T01:05:54;7.20;99.90
37300;DHT22;23184;51.902;12.836;2024-02-04T01:08:21;7.20;99.90
37300;DHT22;23184;51.902;12.836;2024-02-04T01:10:46;7.20;99.90
37300;DHT22;23184;51.902;12.836;2024-02-04T01:13:12;7.10;99.90
37300;DHT22;23184;51.902;12.836;2024-02-04T01:15:37;7.20;99.90
37300;DHT22;23184;51.902;12.836;2024-02-04T01:18:03;7.10;99.90
37300;DHT22;23184;51.902;12.836;2024-02-04T01:20:29;7.10;99.90
37300;DHT22;23184;51.902;12.836;2024-02-04T01:22:54;7.10;99.90
37300;DHT22;23184;51.902;12.836;2024-02-04T01:25:20;7.10;99.90
37300;DHT22;23184;51.902;12.836;2024-02-04T01:27:45;7.10;99.90
37300;DHT22;23184;51.902;12.836;2024-02-04T01:30:11;7.10;99.90
37300;DHT22;23184;51.902;12.836;2024-02-04T01:32:36;7.10;99.90
37300;DHT22;23184;51.902;12.836;2024-02-04T01:35:02;7.10;99.90
37300;DHT22;23184;51.902;12.836;2024-02-04T01:37:28;7.10;99.90
37300;DHT22;23184;51.902;12.836;2024-02-04T01:39:53;7.10;99.90
37300;DHT22;23184;51.902;12.836;2024-02-04T01:42:19;7.10;99.90
37300;DHT22;23184;51.902;12.836;2024-02-04T01:44:44;7.00;99.90
37300;DHT22;23184;51.902;12.836;2024-02-04T01:47:10;7.00;99.90
37300;DHT22;23184;51.902;12.836;2024-02-04T01:49:36;7.00;99.90
37300;DHT22;23184;51.902;12.836;2024-02-04T01:52:02;7.00;99.90
37300;DHT22;23184;51.902;12.836;2024-02-04T01:54:30;7.00;99.90
37300;DHT22;23184;51.902;12.836;2024-02-04T01:56:58;7.00;99.90
37300;DHT22;23184;51.902;12.836;2024-02-04T01:59:27;7.00;99.90
37300;DHT22;23184;51.902;12.836;2024-02-04T02:02:02;7.00;99.90
37300;DHT22;23184;51.902;12.836;2024-02-04T02:04:28;7.00;99.90
37300;DHT22;23184;51.902;12.836;2024-02-04T02:06:54;7.00;99.90
37300;DHT22;23184;51.902;12.836;2024-02-04T02:09:20;7.00;99.90
37300;DHT22;23184;51.902;12.836;2024-02-04T02:14:29;7.00;99.90
37300;DHT22;23184;51.902;12.836;2024-02-04T02:16:57;7.00;99.90
37300;DHT22;23184;51.902;12.836;2024-02-04T02:22:45;6.90;99.90
37300;DHT22;23184;51.902;12.836;2024-02-04T02:25:13;6.90;99.90
37300;DHT22;23184;51.902;12.836;2024-02-04T02:27:46;7.00;99.90
37300;DHT22;23184;51.902;12.836;2024-02-04T02:30:12;6.90;99.90
37300;DHT22;23184;51.902;12.836;2024-02-04T02:32:38;6.90;99.90
37300;DHT22;23184;51.902;12.836;2024-02-04T02:35:04;6.90;99.90
37300;DHT22;23184;51.902;12.836;2024-02-04T02:37:55;7.00;99.90
37300;DHT22;23184;51.902;12.836;2024-02-04T02:40:30;7.00;99.90
37300;DHT22;23184;51.902;12.836;2024-02-04T02:42:59;7.10;99.90
37300;DHT22;23184;51.902;12.836;2024-02-04T02:45:27;7.20;99.90
37300;DHT22;23184;51.902;12.836;2024-02-04T02:47:54;7.20;99.90
37300;DHT22;23184;51.902;12.836;2024-02-04T02:50:20;7.20;99.90
37300;DHT22;23184;51.902;12.836;2024-02-04T02:52:46;7.20;99.90
37300;DHT22;23184;51.902;12.836;2024-02-04T02:55:11;7.20;99.90
37300;DHT22;23184;51.902;12.836;2024-02-04T02:57:37;7.20;99.90
37300;DHT22;23184;51.902;12.836;2024-02-04T03:00:03;7.20;99.90
37300;DHT22;23184;51.902;12.836;2024-02-04T03:02:31;7.20;99.90
37300;DHT22;23184;51.902;12.836;2024-02-04T03:04:56;7.20;99.90
37300;DHT22;23184;51.902;12.836;2024-02-04T03:07:22;7.20;99.90
37300;DHT22;23184;51.902;12.836;2024-02-04T03:09:47;7.10;99.90
37300;DHT22;23184;51.902;12.836;2024-02-04T03:12:13;7.10;99.90
37300;DHT22;23184;51.902;12.836;2024-02-04T03:14:38;7.20;99.90
37300;DHT22;23184;51.902;12.836;2024-02-04T03:17:04;7.20;99.90
37300;DHT22;23184;51.902;12.836;2024-02-04T03:19:29;7.20;99.90
37300;DHT22;23184;51.902;12.836;2024-02-04T03:21:55;7.30;99.90
37300;DHT22;23184;51.902;12.836;2024-02-04T03:24:20;7.30;99.90
37300;DHT22;23184;51.902;12.836;2024-02-04T03:26:46;7.30;99.90
37300;DHT22;23184;51.902;12.836;2024-02-04T03:29:11;7.40;99.90
37300;DHT22;23184;51.902;12.836;2024-02-04T03:31:37;7.40;99.90
37300;DHT22;23184;51.902;12.836;2024-02-04T03:34:02;7.30;99.90
37300;DHT22;23184;51.902;12.836;2024-02-04T03:36:28;7.30;99.90
37300;DHT22;23184;51.902;12.836;2024-02-04T03:38:53;7.30;99.90
37300;DHT22;23184;51.902;12.836;2024-02-04T03:41:19;7.30;99.90
37300;DHT22;23184;51.902;12.836;2024-02-04T03:43:45;7.30;99.90
37300;DHT22;23184;51.902;12.836;2024-02-04T03:46:17;7.30;99.90
37300;DHT22;23184;51.902;12.836;2024-02-04T03:48:43;7.30;99.90
37300;DHT22;23184;51.902;12.836;2024-02-04T03:51:14;7.30;99.90
37300;DHT22;23184;51.902;12.836;2024-02-04T03:53:39;7.30;99.90
37300;DHT22;23184;51.902;12.836;2024-02-04T03:56:05;7.30;99.90
37300;DHT22;23184;51.902;12.836;2024-02-04T03:58:32;7.30;99.90
37300;DHT22;23184;51.902;12.836;2024-02-04T04:00:58;7.20;99.90
37300;DHT22;23184;51.902;12.836;2024-02-04T04:03:24;7.10;99.90
37300;DHT22;23184;51.902;12.836;2024-02-04T04:05:50;7.10;99.90
37300;DHT22;23184;51.902;12.836;2024-02-04T04:08:16;7.00;99.90
37300;DHT22;23184;51.902;12.836;2024-02-04T04:10:43;6.90;99.90
37300;DHT22;23184;51.902;12.836;2024-02-04T04:13:08;7.00;99.90
37300;DHT22;23184;51.902;12.836;2024-02-04T04:15:34;7.00;99.90
37300;DHT22;23184;51.902;12.836;2024-02-04T04:17:59;7.00;99.90
37300;DHT22;23184;51.902;12.836;2024-02-04T04:20:25;6.90;99.90
37300;DHT22;23184;51.902;12.836;2024-02-04T04:22:50;6.90;99.90
37300;DHT22;23184;51.902;12.836;2024-02-04T04:25:16;6.90;99.90
37300;DHT22;23184;51.902;12.836;2024-02-04T04:27:42;6.90;99.90
37300;DHT22;23184;51.902;12.836;2024-02-04T04:30:08;6.90;99.90
37300;DHT22;23184;51.902;12.836;2024-02-04T04:32:34;6.90;99.90
37300;DHT22;23184;51.902;12.836;2024-02-04T04:34:59;6.80;99.90
37300;DHT22;23184;51.902;12.836;2024-02-04T04:37:25;6.80;99.90
37300;DHT22;23184;51.902;12.836;2024-02-04T04:39:50;6.80;99.90
37300;DHT22;23184;51.902;12.836;2024-02-04T04:42:16;6.70;99.90
37300;DHT22;23184;51.902;12.836;2024-02-04T04:44:41;6.70;99.90
37300;DHT22;23184;51.902;12.836;2024-02-04T04:47:07;6.70;99.90
37300;DHT22;23184;51.902;12.836;2024-02-04T04:49:32;6.60;99.90
37300;DHT22;23184;51.902;12.836;2024-02-04T04:51:58;6.50;99.90
37300;DHT22;23184;51.902;12.836;2024-02-04T04:54:23;6.40;99.90
37300;DHT22;23184;51.902;12.836;2024-02-04T04:56:49;6.40;99.90
37300;DHT22;23184;51.902;12.836;2024-02-04T04:59:17;6.40;99.90
37300;DHT22;23184;51.902;12.836;2024-02-04T05:01:49;6.40;99.90
37300;DHT22;23184;51.902;12.836;2024-02-04T05:04:17;6.40;99.90
37300;DHT22;23184;51.902;12.836;2024-02-04T05:06:44;6.50;99.90
37300;DHT22;23184;51.902;12.836;2024-02-04T05:09:09;6.50;99.90
37300;DHT22;23184;51.902;12.836;2024-02-04T05:11:35;6.60;99.90
37300;DHT22;23184;51.902;12.836;2024-02-04T05:14:01;6.60;99.90
37300;DHT22;23184;51.902;12.836;2024-02-04T05:16:26;6.60;99.90
37300;DHT22;23184;51.902;12.836;2024-02-04T05:18:52;6.70;99.90
37300;DHT22;23184;51.902;12.836;2024-02-04T05:21:17;6.70;99.90
37300;DHT22;23184;51.902;12.836;2024-02-04T05:23:43;6.70;99.90
37300;DHT22;23184;51.902;12.836;2024-02-04T05:26:08;6.60;99.90
37300;DHT22;23184;51.902;12.836;2024-02-04T05:28:34;6.60;99.90
37300;DHT22;23184;51.902;12.836;2024-02-04T05:31:01;6.60;99.90
37300;DHT22;23184;51.902;12.836;2024-02-04T05:33:27;6.60;99.90
37300;DHT22;23184;51.902;12.836;2024-02-04T05:35:53;6.50;99.90
37300;DHT22;23184;51.902;12.836;2024-02-04T05:38:18;6.30;99.90
37300;DHT22;23184;51.902;12.836;2024-02-04T05:40:44;6.10;99.90
37300;DHT22;23184;51.902;12.836;2024-02-04T05:43:09;6.00;99.90
37300;DHT22;23184;51.902;12.836;2024-02-04T05:45:37;5.90;99.90
37300;DHT22;23184;51.902;12.836;2024-02-04T05:48:03;5.90;99.90
37300;DHT22;23184;51.902;12.836;2024-02-04T05:50:28;5.90;99.90
37300;DHT22;23184;51.902;12.836;2024-02-04T05:52:54;6.00;99.90
37300;DHT22;23184;51.902;12.836;2024-02-04T05:55:19;6.20;99.90
37300;DHT22;23184;51.902;12.836;2024-02-04T05:57:45;6.30;99.90
37300;DHT22;23184;51.902;12.836;2024-02-04T06:00:11;6.40;99.90
37300;DHT22;23184;51.902;12.836;2024-02-04T06:02:37;6.40;99.90
37300;DHT22;23184;51.902;12.836;2024-02-04T06:05:03;6.40;99.90
37300;DHT22;23184;51.902;12.836;2024-02-04T06:07:28;6.50;99.90
37300;DHT22;23184;51.902;12.836;2024-02-04T06:09:54;6.60;99.90
37300;DHT22;23184;51.902;12.836;2024-02-04T06:12:24;6.70;99.90
37300;DHT22;23184;51.902;12.836;2024-02-04T06:14:50;6.80;99.90
37300;DHT22;23184;51.902;12.836;2024-02-04T06:17:15;6.80;99.90
37300;DHT22;23184;51.902;12.836;2024-02-04T06:19:41;6.90;99.90
37300;DHT22;23184;51.902;12.836;2024-02-04T06:22:06;6.90;99.90
37300;DHT22;23184;51.902;12.836;2024-02-04T06:24:32;6.90;99.90
37300;DHT22;23184;51.902;12.836;2024-02-04T06:26:57;6.90;99.90
37300;DHT22;23184;51.902;12.836;2024-02-04T06:29:23;6.90;99.90
37300;DHT22;23184;51.902;12.836;2024-02-04T06:31:48;6.90;99.90
37300;DHT22;23184;51.902;12.836;2024-02-04T06:34:14;7.00;99.90
37300;DHT22;23184;51.902;12.836;2024-02-04T06:36:43;7.00;99.90
37300;DHT22;23184;51.902;12.836;2024-02-04T06:39:11;6.90;99.90
37300;DHT22;23184;51.902;12.836;2024-02-04T06:41:37;6.90;99.90
37300;DHT22;23184;51.902;12.836;2024-02-04T06:44:03;6.90;99.90
37300;DHT22;23184;51.902;12.836;2024-02-04T06:46:29;6.90;99.90
37300;DHT22;23184;51.902;12.836;2024-02-04T06:48:55;7.00;99.90
37300;DHT22;23184;51.902;12.836;2024-02-04T06:51:21;7.10;99.90
37300;DHT22;23184;51.902;12.836;2024-02-04T06:53:47;7.20;99.90
37300;DHT22;23184;51.902;12.836;2024-02-04T06:56:12;7.20;99.90
37300;DHT22;23184;51.902;12.836;2024-02-04T06:58:38;7.20;99.90
37300;DHT22;23184;51.902;12.836;2024-02-04T07:01:04;7.30;99.90
37300;DHT22;23184;51.902;12.836;2024-02-04T07:03:30;7.30;99.90
37300;DHT22;23184;51.902;12.836;2024-02-04T07:05:56;7.40;99.90
37300;DHT22;23184;51.902;12.836;2024-02-04T07:08:21;7.40;99.90
37300;DHT22;23184;51.902;12.836;2024-02-04T07:10:47;7.40;99.90
37300;DHT22;23184;51.902;12.836;2024-02-04T07:13:12;7.30;99.90
37300;DHT22;23184;51.902;12.836;2024-02-04T07:15:38;7.40;99.90
37300;DHT22;23184;51.902;12.836;2024-02-04T07:18:04;7.30;99.90
37300;DHT22;23184;51.902;12.836;2024-02-04T07:20:29;7.20;99.90
37300;DHT22;23184;51.902;12.836;2024-02-04T07:22:55;7.10;99.90
37300;DHT22;23184;51.902;12.836;2024-02-04T07:25:21;7.00;99.90
37300;DHT22;23184;51.902;12.836;2024-02-04T07:27:47;7.00;99.90
37300;DHT22;23184;51.902;12.836;2024-02-04T07:30:13;7.00;99.90
37300;DHT22;23184;51.902;12.836;2024-02-04T07:32:39;7.00;99.90
37300;DHT22;23184;51.902;12.836;2024-02-04T07:35:04;6.90;99.90
37300;DHT22;23184;51.902;12.836;2024-02-04T07:37:30;6.90;99.90
37300;DHT22;23184;51.902;12.836;2024-02-04T07:39:55;7.00;99.90
37300;DHT22;23184;51.902;12.836;2024-02-04T07:42:21;7.20;99.90
37300;DHT22;23184;51.902;12.836;2024-02-04T07:44:47;7.40;99.90
37300;DHT22;23184;51.902;12.836;2024-02-04T07:47:12;7.50;99.90
37300;DHT22;23184;51.902;12.836;2024-02-04T07:49:38;7.50;99.90
37300;DHT22;23184;51.902;12.836;2024-02-04T07:52:04;7.60;99.90
37300;DHT22;23184;51.902;12.836;2024-02-04T07:54:30;7.60;99.90
37300;DHT22;23184;51.902;12.836;2024-02-04T07:56:56;7.60;99.90
37300;DHT22;23184;51.902;12.836;2024-02-04T07:59:21;7.70;99.90
37300;DHT22;23184;51.902;12.836;2024-02-04T08:01:47;7.80;99.90
37300;DHT22;23184;51.902;12.836;2024-02-04T08:04:12;7.80;99.90
37300;DHT22;23184;51.902;12.836;2024-02-04T08:06:38;7.90;99.90
37300;DHT22;23184;51.902;12.836;2024-02-04T08:09:04;7.90;99.90
37300;DHT22;23184;51.902;12.836;2024-02-04T08:11:29;8.00;99.90
37300;DHT22;23184;51.902;12.836;2024-02-04T08:13:55;8.10;99.90
37300;DHT22;23184;51.902;12.836;2024-02-04T08:16:21;8.10;99.90
37300;DHT22;23184;51.902;12.836;2024-02-04T08:18:46;8.10;99.90
37300;DHT22;23184;51.902;12.836;2024-02-04T08:21:12;8.10;99.90
37300;DHT22;23184;51.902;12.836;2024-02-04T08:23:38;8.20;99.90
37300;DHT22;23184;51.902;12.836;2024-02-04T08:26:05;8.30;99.90
37300;DHT22;23184;51.902;12.836;2024-02-04T08:28:31;8.30;99.90
37300;DHT22;23184;51.902;12.836;2024-02-04T08:30:56;8.30;99.90
37300;DHT22;23184;51.902;12.836;2024-02-04T08:33:22;8.30;99.90
37300;DHT22;23184;51.902;12.836;2024-02-04T08:35:48;8.30;99.90
37300;DHT22;23184;51.902;12.836;2024-02-04T08:38:14;8.30;99.90
37300;DHT22;23184;51.902;12.836;2024-02-04T08:40:39;8.40;99.90
37300;DHT22;23184;51.902;12.836;2024-02-04T08:43:05;8.40;99.90
37300;DHT22;23184;51.902;12.836;2024-02-04T08:45:30;8.50;99.90
37300;DHT22;23184;51.902;12.836;2024-02-04T08:47:56;8.50;99.90
37300;DHT22;23184;51.902;12.836;2024-02-04T08:50:21;8.50;99.90
37300;DHT22;23184;51.902;12.836;2024-02-04T08:52:47;8.60;99.90
37300;DHT22;23184;51.902;12.836;2024-02-04T08:55:12;8.70;99.90
37300;DHT22;23184;51.902;12.836;2024-02-04T08:57:38;8.70;99.90
37300;DHT22;23184;51.902;12.836;2024-02-04T09:00:05;8.70;99.90
37300;DHT22;23184;51.902;12.836;2024-02-04T09:02:36;8.70;99.90
37300;DHT22;23184;51.902;12.836;2024-02-04T09:05:02;8.80;99.90
37300;DHT22;23184;51.902;12.836;2024-02-04T09:07:28;8.90;99.90
37300;DHT22;23184;51.902;12.836;2024-02-04T09:09:53;8.90;99.90
37300;DHT22;23184;51.902;12.836;2024-02-04T09:12:19;9.00;99.90
37300;DHT22;23184;51.902;12.836;2024-02-04T09:14:44;9.00;99.90
37300;DHT22;23184;51.902;12.836;2024-02-04T09:17:10;9.00;99.90
37300;DHT22;23184;51.902;12.836;2024-02-04T09:19:35;9.00;99.90
37300;DHT22;23184;51.902;12.836;2024-02-04T09:22:01;9.10;99.90
37300;DHT22;23184;51.902;12.836;2024-02-04T09:24:27;9.10;99.90
37300;DHT22;23184;51.902;12.836;2024-02-04T09:26:53;9.10;99.90
37300;DHT22;23184;51.902;12.836;2024-02-04T09:29:20;9.10;99.90
37300;DHT22;23184;51.902;12.836;2024-02-04T09:31:46;9.10;99.90
37300;DHT22;23184;51.902;12.836;2024-02-04T09:34:11;9.10;99.90
37300;DHT22;23184;51.902;12.836;2024-02-04T09:36:37;9.10;99.90
37300;DHT22;23184;51.902;12.836;2024-02-04T09:39:02;9.10;99.90
37300;DHT22;23184;51.902;12.836;2024-02-04T09:41:28;9.10;99.90
37300;DHT22;23184;51.902;12.836;2024-02-04T09:43:55;9.10;99.90
37300;DHT22;23184;51.902;12.836;2024-02-04T09:46:21;9.10;99.90
37300;DHT22;23184;51.902;12.836;2024-02-04T09:48:47;9.10;99.90
37300;DHT22;23184;51.902;12.836;2024-02-04T09:51:14;9.20;99.90
37300;DHT22;23184;51.902;12.836;2024-02-04T09:53:44;9.30;99.90
37300;DHT22;23184;51.902;12.836;2024-02-04T09:56:10;9.30;99.90
37300;DHT22;23184;51.902;12.836;2024-02-04T09:58:37;9.40;99.90
37300;DHT22;23184;51.902;12.836;2024-02-04T10:01:06;9.50;99.90
37300;DHT22;23184;51.902;12.836;2024-02-04T10:03:34;9.50;99.90
37300;DHT22;23184;51.902;12.836;2024-02-04T10:05:59;9.50;99.90
37300;DHT22;23184;51.902;12.836;2024-02-04T10:08:25;9.50;99.90
37300;DHT22;23184;51.902;12.836;2024-02-04T10:10:51;9.50;99.90
37300;DHT22;23184;51.902;12.836;2024-02-04T10:13:16;9.50;99.90
37300;DHT22;23184;51.902;12.836;2024-02-04T10:15:42;9.50;99.90
37300;DHT22;23184;51.902;12.836;2024-02-04T10:18:08;9.40;99.90
37300;DHT22;23184;51.902;12.836;2024-02-04T10:20:34;9.50;99.90
37300;DHT22;23184;51.902;12.836;2024-02-04T10:23:00;9.50;99.90
37300;DHT22;23184;51.902;12.836;2024-02-04T10:25:26;9.40;99.90
37300;DHT22;23184;51.902;12.836;2024-02-04T10:27:52;9.40;99.90
37300;DHT22;23184;51.902;12.836;2024-02-04T10:30:21;9.40;99.90
37300;DHT22;23184;51.902;12.836;2024-02-04T10:32:51;9.40;99.90
37300;DHT22;23184;51.902;12.836;2024-02-04T10:35:16;9.40;99.90
37300;DHT22;23184;51.902;12.836;2024-02-04T10:37:45;9.40;99.90
37300;DHT22;23184;51.902;12.836;2024-02-04T10:40:11;9.40;99.90
37300;DHT22;23184;51.902;12.836;2024-02-04T10:42:37;9.40;99.90
37300;DHT22;23184;51.902;12.836;2024-02-04T10:45:07;9.40;99.90
37300;DHT22;23184;51.902;12.836;2024-02-04T10:47:34;9.40;99.90
37300;DHT22;23184;51.902;12.836;2024-02-04T10:50:03;9.40;99.90
37300;DHT22;23184;51.902;12.836;2024-02-04T10:52:38;9.40;99.90
37300;DHT22;23184;51.902;12.836;2024-02-04T10:55:10;9.50;99.90
37300;DHT22;23184;51.902;12.836;2024-02-04T10:57:37;9.50;99.90
37300;DHT22;23184;51.902;12.836;2024-02-04T11:00:04;9.60;99.90
37300;DHT22;23184;51.902;12.836;2024-02-04T11:02:35;9.60;99.90
37300;DHT22;23184;51.902;12.836;2024-02-04T11:05:02;9.70;99.90
37300;DHT22;23184;51.902;12.836;2024-02-04T11:07:31;9.80;99.90
37300;DHT22;23184;51.902;12.836;2024-02-04T11:09:57;9.80;99.90
37300;DHT22;23184;51.902;12.836;2024-02-04T11:12:24;9.90;99.90
37300;DHT22;23184;51.902;12.836;2024-02-04T11:14:54;10.00;99.90
37300;DHT22;23184;51.902;12.836;2024-02-04T11:17:57;10.00;99.90
37300;DHT22;23184;51.902;12.836;2024-02-04T11:20:32;10.00;99.90
37300;DHT22;23184;51.902;12.836;2024-02-04T11:23:19;10.00;99.90
37300;DHT22;23184;51.902;12.836;2024-02-04T11:25:50;10.00;99.90
37300;DHT22;23184;51.902;12.836;2024-02-04T11:28:19;10.00;99.90
37300;DHT22;23184;51.902;12.836;2024-02-04T11:30:47;9.90;99.90
37300;DHT22;23184;51.902;12.836;2024-02-04T11:33:17;9.90;99.90
37300;DHT22;23184;51.902;12.836;2024-02-04T11:35:43;9.90;99.90
37300;DHT22;23184;51.902;12.836;2024-02-04T11:38:09;9.90;99.90
37300;DHT22;23184;51.902;12.836;2024-02-04T11:40:37;9.90;99.90
37300;DHT22;23184;51.902;12.836;2024-02-04T11:43:14;9.90;99.90
37300;DHT22;23184;51.902;12.836;2024-02-04T11:45:41;9.90;99.90
37300;DHT22;23184;51.902;12.836;2024-02-04T11:48:08;9.90;99.90
37300;DHT22;23184;51.902;12.836;2024-02-04T11:50:34;9.90;99.90
37300;DHT22;23184;51.902;12.836;2024-02-04T11:53:10;9.90;99.90
37300;DHT22;23184;51.902;12.836;2024-02-04T11:55:38;9.80;99.90
37300;DHT22;23184;51.902;12.836;2024-02-04T11:58:05;9.80;99.90
37300;DHT22;23184;51.902;12.836;2024-02-04T12:00:35;9.80;99.90
37300;DHT22;23184;51.902;12.836;2024-02-04T12:03:05;9.80;99.90
37300;DHT22;23184;51.902;12.836;2024-02-04T12:05:34;9.70;99.90
37300;DHT22;23184;51.902;12.836;2024-02-04T12:08:05;9.70;99.90
37300;DHT22;23184;51.902;12.836;2024-02-04T12:10:31;9.70;99.90
37300;DHT22;23184;51.902;12.836;2024-02-04T12:12:59;9.70;99.90
37300;DHT22;23184;51.902;12.836;2024-02-04T12:15:25;9.60;99.90
37300;DHT22;23184;51.902;12.836;2024-02-04T12:17:51;9.60;99.90
37300;DHT22;23184;51.902;12.836;2024-02-04T12:20:16;9.70;99.90
37300;DHT22;23184;51.902;12.836;2024-02-04T12:22:42;9.70;99.90
37300;DHT22;23184;51.902;12.836;2024-02-04T12:25:08;9.60;99.90
37300;DHT22;23184;51.902;12.836;2024-02-04T12:27:34;9.70;99.90
37300;DHT22;23184;51.902;12.836;2024-02-04T12:30:00;9.60;99.90
37300;DHT22;23184;51.902;12.836;2024-02-04T12:32:25;9.60;99.90
37300;DHT22;23184;51.902;12.836;2024-02-04T12:34:52;9.60;99.90
37300;DHT22;23184;51.902;12.836;2024-02-04T12:37:19;9.50;99.90
37300;DHT22;23184;51.902;12.836;2024-02-04T12:39:45;9.50;99.90
37300;DHT22;23184;51.902;12.836;2024-02-04T12:42:15;9.50;99.90
37300;DHT22;23184;51.902;12.836;2024-02-04T12:44:44;9.50;99.90
37300;DHT22;23184;51.902;12.836;2024-02-04T12:47:09;9.50;99.90
37300;DHT22;23184;51.902;12.836;2024-02-04T12:49:35;9.50;99.90
37300;DHT22;23184;51.902;12.836;2024-02-04T12:52:05;9.50;99.90
37300;DHT22;23184;51.902;12.836;2024-02-04T12:54:31;9.40;99.90
37300;DHT22;23184;51.902;12.836;2024-02-04T12:56:56;9.40;99.90
37300;DHT22;23184;51.902;12.836;2024-02-04T12:59:32;9.50;99.90
37300;DHT22;23184;51.902;12.836;2024-02-04T13:02:07;9.50;99.90
37300;DHT22;23184;51.902;12.836;2024-02-04T13:04:37;9.50;99.90
37300;DHT22;23184;51.902;12.836;2024-02-04T13:07:07;9.50;99.90
37300;DHT22;23184;51.902;12.836;2024-02-04T13:09:33;9.50;99.90
37300;DHT22;23184;51.902;12.836;2024-02-04T13:12:08;9.50;99.90
37300;DHT22;23184;51.902;12.836;2024-02-04T13:14:34;9.50;99.90
37300;DHT22;23184;51.902;12.836;2024-02-04T13:17:00;9.40;99.90
37300;DHT22;23184;51.902;12.836;2024-02-04T13:19:32;9.40;99.90
37300;DHT22;23184;51.902;12.836;2024-02-04T13:21:58;9.40;99.90
37300;DHT22;23184;51.902;12.836;2024-02-04T13:24:24;9.40;99.90
37300;DHT22;23184;51.902;12.836;2024-02-04T13:26:49;9.40;99.90
37300;DHT22;23184;51.902;12.836;2024-02-04T13:29:15;9.50;99.90
37300;DHT22;23184;51.902;12.836;2024-02-04T13:31:40;9.50;99.90
37300;DHT22;23184;51.902;12.836;2024-02-04T13:34:05;9.50;99.90
37300;DHT22;23184;51.902;12.836;2024-02-04T13:36:32;9.50;99.90
37300;DHT22;23184;51.902;12.836;2024-02-04T13:38:58;9.50;99.90
37300;DHT22;23184;51.902;12.836;2024-02-04T13:41:23;9.40;99.90
37300;DHT22;23184;51.902;12.836;2024-02-04T13:43:49;9.40;99.90
37300;DHT22;23184;51.902;12.836;2024-02-04T13:46:15;9.40;99.90
37300;DHT22;23184;51.902;12.836;2024-02-04T13:48:41;9.40;99.90
37300;DHT22;23184;51.902;12.836;2024-02-04T13:51:06;9.40;99.90
37300;DHT22;23184;51.902;12.836;2024-02-04T13:53:33;9.40;99.90
37300;DHT22;23184;51.902;12.836;2024-02-04T13:55:59;9.40;99.90
37300;DHT22;23184;51.902;12.836;2024-02-04T13:58:25;9.40;99.90
37300;DHT22;23184;51.902;12.836;2024-02-04T14:00:51;9.40;99.90
37300;DHT22;23184;51.902;12.836;2024-02-04T14:03:17;9.30;99.90
37300;DHT22;23184;51.902;12.836;2024-02-04T14:05:42;9.30;99.90
37300;DHT22;23184;51.902;12.836;2024-02-04T14:08:08;9.30;99.90
37300;DHT22;23184;51.902;12.836;2024-02-04T14:10:34;9.30;99.90
37300;DHT22;23184;51.902;12.836;2024-02-04T14:12:59;9.30;99.90
37300;DHT22;23184;51.902;12.836;2024-02-04T14:15:25;9.20;99.90
37300;DHT22;23184;51.902;12.836;2024-02-04T14:17:51;9.20;99.90
37300;DHT22;23184;51.902;12.836;2024-02-04T14:20:16;9.20;99.90
37300;DHT22;23184;51.902;12.836;2024-02-04T14:22:42;9.20;99.90
37300;DHT22;23184;51.902;12.836;2024-02-04T14:25:08;9.20;99.90
37300;DHT22;23184;51.902;12.836;2024-02-04T14:27:33;9.20;99.90
37300;DHT22;23184;51.902;12.836;2024-02-04T14:29:59;9.20;99.90
37300;DHT22;23184;51.902;12.836;2024-02-04T14:32:24;9.20;99.90
37300;DHT22;23184;51.902;12.836;2024-02-04T14:34:50;9.10;99.90
37300;DHT22;23184;51.902;12.836;2024-02-04T14:37:15;9.10;99.90
37300;DHT22;23184;51.902;12.836;2024-02-04T14:39:41;9.10;99.90
37300;DHT22;23184;51.902;12.836;2024-02-04T14:42:08;9.10;99.90
37300;DHT22;23184;51.902;12.836;2024-02-04T14:44:34;9.10;99.90
37300;DHT22;23184;51.902;12.836;2024-02-04T14:47:00;9.10;99.90
37300;DHT22;23184;51.902;12.836;2024-02-04T14:49:25;9.10;99.90
37300;DHT22;23184;51.902;12.836;2024-02-04T14:51:52;9.10;99.90
37300;DHT22;23184;51.902;12.836;2024-02-04T14:54:18;9.10;99.90
37300;DHT22;23184;51.902;12.836;2024-02-04T14:56:43;9.10;99.90
37300;DHT22;23184;51.902;12.836;2024-02-04T14:59:12;9.00;99.90
37300;DHT22;23184;51.902;12.836;2024-02-04T15:01:38;9.00;99.90
37300;DHT22;23184;51.902;12.836;2024-02-04T15:04:04;9.00;99.90
37300;DHT22;23184;51.902;12.836;2024-02-04T15:06:30;9.00;99.90
37300;DHT22;23184;51.902;12.836;2024-02-04T15:08:56;9.00;99.90
37300;DHT22;23184;51.902;12.836;2024-02-04T15:11:22;9.00;99.90
37300;DHT22;23184;51.902;12.836;2024-02-04T15:13:48;9.10;99.90
37300;DHT22;23184;51.902;12.836;2024-02-04T15:16:14;9.00;99.90
37300;DHT22;23184;51.902;12.836;2024-02-04T15:18:39;9.00;99.90
37300;DHT22;23184;51.902;12.836;2024-02-04T15:21:06;9.00;99.90
37300;DHT22;23184;51.902;12.836;2024-02-04T15:23:31;9.00;99.90
37300;DHT22;23184;51.902;12.836;2024-02-04T15:25:57;9.00;99.90
37300;DHT22;23184;51.902;12.836;2024-02-04T15:28:24;8.90;99.90
37300;DHT22;23184;51.902;12.836;2024-02-04T15:30:50;8.90;99.90